createdAt,value
2017-12-22T00:00:21.595Z,33.33
2017-12-22T00:02:49.392Z,33.97
2017-12-22T00:05:17.279Z,34.47
2017-12-22T00:07:45.148Z,30.53
2017-12-22T00:10:13.031Z,22.13
2017-12-22T00:12:40.861Z,31.17
2017-12-22T00:15:08.713Z,26.00
2017-12-22T00:17:36.615Z,33.73
2017-12-22T00:20:04.516Z,32.33
2017-12-22T00:22:32.389Z,32.47
2017-12-22T00:25:00.252Z,34.20
2017-12-22T00:27:28.118Z,31.47
2017-12-22T00:29:55.988Z,31.13
2017-12-22T00:32:23.852Z,34.00
2017-12-22T00:34:51.717Z,30.90
2017-12-22T00:37:19.582Z,32.50
2017-12-22T00:39:47.452Z,32.73
2017-12-22T00:42:15.321Z,29.17
2017-12-22T00:44:43.212Z,32.40
2017-12-22T00:47:11.061Z,32.10
2017-12-22T00:49:38.924Z,32.10
2017-12-22T00:52:06.816Z,27.27
2017-12-22T00:54:34.650Z,29.73
2017-12-22T00:57:02.524Z,30.17
2017-12-22T00:59:30.373Z,28.47
2017-12-22T01:01:58.216Z,29.07
2017-12-22T01:04:26.064Z,28.90
2017-12-22T01:06:53.957Z,27.47
2017-12-22T01:09:21.795Z,30.70
2017-12-22T01:11:49.663Z,28.50
2017-12-22T01:14:17.511Z,29.13
2017-12-22T01:16:51.484Z,28.70
2017-12-22T01:19:19.346Z,28.90
2017-12-22T01:21:47.202Z,29.43
2017-12-22T01:24:15.078Z,26.83
2017-12-22T01:26:43.003Z,27.63
2017-12-22T01:29:10.890Z,26.83
2017-12-22T01:31:38.777Z,25.30
2017-12-22T01:34:06.648Z,28.20
2017-12-22T01:36:34.551Z,26.13
2017-12-22T01:39:02.434Z,25.07
2017-12-22T01:41:30.268Z,27.10
2017-12-22T01:43:58.113Z,18.40
2017-12-22T01:46:25.936Z,24.23
2017-12-22T01:48:53.846Z,23.10
2017-12-22T01:51:21.726Z,24.17
2017-12-22T01:53:49.620Z,20.73
2017-12-22T01:56:17.504Z,23.47
2017-12-22T01:58:45.372Z,27.10
2017-12-22T02:01:13.227Z,24.97
2017-12-22T02:03:41.092Z,22.80
2017-12-22T02:06:08.955Z,21.20
2017-12-22T02:08:36.863Z,22.47
2017-12-22T02:11:04.690Z,22.90
2017-12-22T02:13:32.566Z,20.73
2017-12-22T02:16:00.397Z,21.07
2017-12-22T02:18:28.296Z,20.87
2017-12-22T02:20:56.165Z,20.93
2017-12-22T02:23:24.040Z,19.20
2017-12-22T02:25:51.852Z,21.70
2017-12-22T02:28:19.726Z,20.67
2017-12-22T02:30:47.582Z,20.47
2017-12-22T02:33:15.421Z,21.00
2017-12-22T02:35:43.303Z,17.80
2017-12-22T02:38:11.180Z,18.53
2017-12-22T02:40:39.048Z,21.67
2017-12-22T02:43:06.898Z,20.63
2017-12-22T02:45:34.808Z,19.87
2017-12-22T02:48:02.640Z,21.17
2017-12-22T02:50:30.586Z,20.30
2017-12-22T02:52:58.450Z,18.80
2017-12-22T02:55:26.328Z,20.70
2017-12-22T02:57:54.193Z,19.37
2017-12-22T03:00:22.060Z,18.70
2017-12-22T03:02:49.930Z,18.70
2017-12-22T03:05:17.804Z,19.90
2017-12-22T03:07:45.669Z,18.40
2017-12-22T03:10:13.584Z,15.17
2017-12-22T03:12:41.482Z,13.73
2017-12-22T03:15:09.345Z,15.30
2017-12-22T03:17:37.180Z,14.50
2017-12-22T03:20:05.039Z,15.20
2017-12-22T03:22:32.920Z,14.43
2017-12-22T03:25:00.772Z,14.77
2017-12-22T03:27:28.651Z,14.13
2017-12-22T03:29:56.499Z,14.57
2017-12-22T03:32:24.375Z,16.03
2017-12-22T03:34:52.280Z,13.87
2017-12-22T03:37:20.139Z,14.10
2017-12-22T03:39:48.001Z,15.63
2017-12-22T03:42:15.886Z,14.60
2017-12-22T03:44:43.759Z,15.80
2017-12-22T03:47:11.624Z,15.50
2017-12-22T03:49:39.464Z,16.87
2017-12-22T03:52:07.360Z,16.07
2017-12-22T03:54:35.264Z,17.07
2017-12-22T03:57:03.168Z,17.90
2017-12-22T03:59:31.034Z,18.43
2017-12-22T04:01:58.900Z,18.20
2017-12-22T04:04:26.801Z,18.27
2017-12-22T04:06:54.703Z,19.07
2017-12-22T04:09:22.599Z,19.50
2017-12-22T04:11:50.472Z,20.60
2017-12-22T04:14:18.392Z,19.33
2017-12-22T04:16:46.266Z,19.37
2017-12-22T04:19:14.165Z,19.57
2017-12-22T04:21:42.024Z,18.43
2017-12-22T04:24:09.897Z,17.17
2017-12-22T04:26:37.765Z,17.53
2017-12-22T04:29:05.603Z,18.47
2017-12-22T04:31:33.458Z,16.97
2017-12-22T04:34:01.363Z,18.57
2017-12-22T04:36:29.216Z,18.97
2017-12-22T04:38:57.082Z,18.07
2017-12-22T04:41:24.956Z,18.03
2017-12-22T04:43:52.827Z,17.30
2017-12-22T04:46:20.687Z,16.77
2017-12-22T04:48:48.558Z,16.80
2017-12-22T04:51:16.419Z,17.13
2017-12-22T04:53:44.277Z,16.47
2017-12-22T04:56:12.116Z,16.83
2017-12-22T04:58:39.992Z,16.90
2017-12-22T05:01:07.858Z,15.47
2017-12-22T05:03:35.739Z,19.00
2017-12-22T05:06:03.590Z,17.63
2017-12-22T05:08:31.492Z,16.53
2017-12-22T05:10:59.337Z,17.93
2017-12-22T05:13:27.189Z,16.10
2017-12-22T05:15:55.067Z,17.53
2017-12-22T05:18:22.919Z,17.20
2017-12-22T05:20:50.858Z,15.90
2017-12-22T05:23:18.765Z,17.30
2017-12-22T05:25:46.668Z,14.60
2017-12-22T05:28:14.597Z,18.00
2017-12-22T05:30:42.509Z,17.53
2017-12-22T05:33:10.358Z,15.60
2017-12-22T05:35:38.200Z,16.93
2017-12-22T05:38:06.239Z,15.37
2017-12-22T05:40:34.120Z,16.87
2017-12-22T05:43:01.969Z,15.77
2017-12-22T05:45:29.801Z,17.27
2017-12-22T05:47:57.680Z,16.70
2017-12-22T05:50:25.512Z,17.50
2017-12-22T05:52:53.357Z,18.47
2017-12-22T05:55:22.172Z,15.97
2017-12-22T05:57:50.010Z,16.20
2017-12-22T06:00:17.860Z,18.20
2017-12-22T06:02:45.726Z,18.30
2017-12-22T06:05:13.592Z,18.40
2017-12-22T06:07:41.479Z,15.63
2017-12-22T06:10:09.339Z,17.40
2017-12-22T06:12:37.193Z,17.40
2017-12-22T06:15:05.074Z,17.27
2017-12-22T06:17:33.559Z,17.43
2017-12-22T06:20:01.429Z,18.53
2017-12-22T06:22:29.281Z,18.50
2017-12-22T06:24:57.132Z,18.23
2017-12-22T06:27:25.001Z,17.50
2017-12-22T06:29:52.867Z,16.87
2017-12-22T06:32:20.797Z,17.97
2017-12-22T06:34:48.668Z,16.67
2017-12-22T06:37:16.534Z,18.80
2017-12-22T06:39:44.396Z,18.17
2017-12-22T06:42:12.295Z,18.53
2017-12-22T06:44:40.167Z,21.00
2017-12-22T06:47:08.050Z,21.23
2017-12-22T06:49:35.900Z,19.27
2017-12-22T06:52:03.795Z,20.40
2017-12-22T06:54:31.680Z,18.90
2017-12-22T06:56:59.531Z,19.00
2017-12-22T06:59:27.398Z,21.40
2017-12-22T07:01:55.272Z,20.67
2017-12-22T07:04:23.164Z,20.93
2017-12-22T07:06:51.093Z,20.70
2017-12-22T07:09:18.971Z,21.70
2017-12-22T07:11:52.574Z,23.57
2017-12-22T07:14:20.506Z,20.50
2017-12-22T07:16:49.020Z,22.83
2017-12-22T07:19:16.874Z,18.57
2017-12-22T07:21:44.750Z,21.57
2017-12-22T07:24:12.675Z,19.80
2017-12-22T07:26:40.560Z,19.57
2017-12-22T07:29:08.442Z,21.70
2017-12-22T07:31:40.698Z,21.23
2017-12-22T07:34:08.537Z,23.20
2017-12-22T07:36:36.405Z,20.93
2017-12-22T07:39:04.254Z,20.93
2017-12-22T07:41:32.153Z,20.63
2017-12-22T07:44:00.022Z,19.70
2017-12-22T07:46:27.893Z,20.37
2017-12-22T07:48:55.774Z,19.60
2017-12-22T07:51:23.645Z,20.37
2017-12-22T07:53:51.489Z,18.80
2017-12-22T07:56:19.357Z,20.00
2017-12-22T07:58:47.244Z,22.37
2017-12-22T08:01:15.368Z,21.63
2017-12-22T08:03:43.206Z,21.80
2017-12-22T08:06:11.046Z,21.30
2017-12-22T08:08:38.988Z,18.83
2017-12-22T08:11:06.878Z,22.33
2017-12-22T08:13:34.724Z,20.13
2017-12-22T08:16:02.565Z,19.63
2017-12-22T08:18:30.473Z,20.07
2017-12-22T08:20:58.336Z,19.40
2017-12-22T08:23:26.261Z,19.80
2017-12-22T08:25:54.181Z,19.90
2017-12-22T08:28:22.039Z,18.40
2017-12-22T08:30:49.908Z,18.50
2017-12-22T08:33:17.777Z,21.20
2017-12-22T08:35:45.669Z,19.10
2017-12-22T08:38:13.588Z,19.30
2017-12-22T08:40:41.502Z,18.67
2017-12-22T08:43:09.425Z,20.23
2017-12-22T08:45:37.422Z,18.50
2017-12-22T08:48:05.497Z,19.63
2017-12-22T08:50:33.436Z,17.83
2017-12-22T08:53:01.359Z,19.57
2017-12-22T08:55:29.256Z,18.40
2017-12-22T08:57:57.094Z,19.13
2017-12-22T09:00:24.929Z,18.07
2017-12-22T09:02:52.809Z,16.47
2017-12-22T09:05:20.694Z,18.17
2017-12-22T09:07:48.588Z,17.77
2017-12-22T09:10:16.873Z,18.73
2017-12-22T09:12:44.764Z,19.87
2017-12-22T09:15:12.623Z,19.60
2017-12-22T09:17:40.582Z,19.63
2017-12-22T09:20:08.492Z,19.40
2017-12-22T09:22:36.425Z,20.10
2017-12-22T09:25:04.313Z,18.00
2017-12-22T09:27:32.158Z,19.80
2017-12-22T09:30:00.103Z,19.40
2017-12-22T09:32:27.968Z,18.50
2017-12-22T09:34:59.111Z,19.17
2017-12-22T09:37:45.706Z,20.77
2017-12-22T09:40:15.704Z,22.23
2017-12-22T09:42:43.637Z,21.40
2017-12-22T09:45:11.872Z,18.47
2017-12-22T09:47:41.707Z,22.70
2017-12-22T09:50:16.841Z,23.30
2017-12-22T09:52:44.874Z,23.83
2017-12-22T09:55:12.756Z,23.47
2017-12-22T09:57:40.626Z,19.57
2017-12-22T10:00:08.514Z,22.23
2017-12-22T10:02:36.404Z,22.43
2017-12-22T10:05:04.305Z,22.83
2017-12-22T10:07:32.294Z,25.10
2017-12-22T10:10:00.212Z,20.77
2017-12-22T10:12:28.113Z,22.30
2017-12-22T10:14:56.041Z,18.37
2017-12-22T10:17:23.941Z,22.17
2017-12-22T10:19:51.811Z,22.30
2017-12-22T10:22:19.781Z,20.87
2017-12-22T10:24:47.681Z,24.10
2017-12-22T10:27:22.237Z,21.50
2017-12-22T10:29:50.646Z,20.17
2017-12-22T10:32:18.513Z,21.80
2017-12-22T10:34:48.141Z,24.00
2017-12-22T10:37:16.104Z,22.57
2017-12-22T10:39:47.261Z,21.20
2017-12-22T10:42:15.415Z,19.93
2017-12-22T10:44:43.411Z,20.83
2017-12-22T10:47:11.668Z,20.33
2017-12-22T10:49:39.725Z,21.10
2017-12-22T10:52:07.669Z,21.17
2017-12-22T10:54:35.624Z,20.33
2017-12-22T10:57:03.562Z,20.63
2017-12-22T10:59:31.531Z,19.57
2017-12-22T11:01:59.499Z,21.33
2017-12-22T11:04:27.425Z,18.80
2017-12-22T11:06:55.341Z,18.90
2017-12-22T11:09:23.279Z,19.47
2017-12-22T11:11:51.249Z,16.13
2017-12-22T11:14:19.185Z,16.17
2017-12-22T11:16:47.234Z,15.30
2017-12-22T11:19:15.176Z,13.43
2017-12-22T11:21:43.136Z,14.23
2017-12-22T11:24:11.138Z,14.60
2017-12-22T11:26:39.183Z,14.53
2017-12-22T11:29:07.089Z,14.97
2017-12-22T11:31:35.026Z,15.00
2017-12-22T11:34:02.961Z,16.47
2017-12-22T11:36:30.916Z,14.57
2017-12-22T11:38:58.859Z,13.30
2017-12-22T11:41:26.788Z,13.60
2017-12-22T11:43:54.788Z,12.10
2017-12-22T11:46:22.827Z,10.97
2017-12-22T11:48:50.894Z,11.40
2017-12-22T11:51:18.841Z,10.50
2017-12-22T11:53:46.748Z,12.00
2017-12-22T11:56:14.729Z,12.23
2017-12-22T11:58:42.580Z,12.67
2017-12-22T12:01:10.451Z,9.60
2017-12-22T12:03:38.323Z,11.53
2017-12-22T12:06:06.176Z,11.20
2017-12-22T12:08:34.058Z,11.27
2017-12-22T12:11:01.908Z,12.87
2017-12-22T12:13:29.749Z,14.53
2017-12-22T12:15:57.615Z,12.80
2017-12-22T12:18:25.484Z,13.17
2017-12-22T12:20:53.351Z,10.30
2017-12-22T12:23:21.232Z,11.87
2017-12-22T12:25:49.122Z,11.63
2017-12-22T12:28:16.988Z,11.40
2017-12-22T12:30:44.832Z,13.07
2017-12-22T12:33:12.681Z,11.83
2017-12-22T12:35:40.563Z,11.13
2017-12-22T12:38:08.473Z,11.93
2017-12-22T12:40:36.383Z,12.83
2017-12-22T12:43:05.229Z,14.07
2017-12-22T12:45:33.081Z,13.47
2017-12-22T12:48:01.007Z,13.90
2017-12-22T12:50:28.942Z,14.47
2017-12-22T12:52:56.841Z,13.97
2017-12-22T12:55:24.743Z,12.43
2017-12-22T12:57:52.601Z,12.13
2017-12-22T13:00:20.455Z,14.50
2017-12-22T13:02:48.332Z,12.80
2017-12-22T13:05:16.268Z,11.70
2017-12-22T13:07:44.147Z,12.20
2017-12-22T13:10:12.009Z,10.93
2017-12-22T13:12:39.943Z,10.30
2017-12-22T13:15:07.792Z,10.43
2017-12-22T13:17:35.637Z,9.80
2017-12-22T13:20:03.509Z,8.57
2017-12-22T13:22:31.412Z,93.77
2017-12-22T13:24:59.281Z,24.90
2017-12-22T13:27:27.132Z,46.73
2017-12-22T13:29:55.008Z,22.93
2017-12-22T13:32:22.864Z,12.90
2017-12-22T13:34:50.717Z,10.83
2017-12-22T13:37:18.583Z,12.27
2017-12-22T13:39:46.459Z,9.67
2017-12-22T13:42:14.356Z,10.17
2017-12-22T13:44:42.289Z,9.80
2017-12-22T13:47:10.172Z,9.07
2017-12-22T13:49:38.016Z,9.53
2017-12-22T13:52:05.884Z,8.83
2017-12-22T13:54:33.772Z,7.10
2017-12-22T13:57:02.377Z,8.97
2017-12-22T13:59:30.720Z,9.63
2017-12-22T14:01:58.630Z,9.70
2017-12-22T14:04:26.535Z,12.00
2017-12-22T14:06:54.408Z,10.77
2017-12-22T14:09:22.272Z,11.30
2017-12-22T14:11:50.175Z,10.77
2017-12-22T14:14:18.046Z,10.47
2017-12-22T14:16:46.589Z,10.50
2017-12-22T14:19:14.460Z,10.90
2017-12-22T14:21:42.338Z,11.50
2017-12-22T14:24:10.205Z,9.93
2017-12-22T14:26:38.057Z,9.97
2017-12-22T14:29:05.918Z,10.50
2017-12-22T14:31:33.741Z,12.43
2017-12-22T14:34:01.624Z,11.07
2017-12-22T14:36:29.484Z,10.80
2017-12-22T14:38:57.336Z,9.50
2017-12-22T14:41:25.176Z,11.30
2017-12-22T14:43:53.128Z,10.77
2017-12-22T14:46:20.984Z,10.00
2017-12-22T14:48:48.861Z,9.20
2017-12-22T14:51:16.787Z,11.80
2017-12-22T14:53:44.636Z,12.63
2017-12-22T14:56:12.498Z,10.67
2017-12-22T14:58:40.420Z,10.90
2017-12-22T15:01:08.308Z,10.67
2017-12-22T15:03:36.145Z,10.37
2017-12-22T15:06:04.598Z,11.13
2017-12-22T15:08:32.543Z,9.73
2017-12-22T15:11:00.381Z,12.07
2017-12-22T15:13:28.216Z,12.13
2017-12-22T15:15:56.164Z,11.83
2017-12-22T15:18:24.004Z,12.60
2017-12-22T15:20:51.877Z,12.50
2017-12-22T15:23:19.736Z,11.50
2017-12-22T15:25:47.665Z,13.07
2017-12-22T15:28:15.520Z,14.57
2017-12-22T15:30:43.540Z,12.50
2017-12-22T15:33:12.542Z,13.27
2017-12-22T15:35:40.427Z,13.87
2017-12-22T15:38:08.325Z,13.37
2017-12-22T15:40:38.297Z,13.27
2017-12-22T15:43:06.244Z,12.83
2017-12-22T15:45:34.158Z,14.93
2017-12-22T15:48:01.977Z,14.67
2017-12-22T15:50:29.845Z,14.07
2017-12-22T15:52:57.716Z,15.07
2017-12-22T15:55:25.640Z,14.00
2017-12-22T15:57:53.572Z,13.30
2017-12-22T16:00:21.460Z,13.63
2017-12-22T16:02:49.361Z,14.80
2017-12-22T16:05:17.252Z,11.57
2017-12-22T16:07:45.115Z,16.30
2017-12-22T16:10:12.984Z,13.03
2017-12-22T16:12:47.524Z,14.23
2017-12-22T16:15:15.631Z,15.60
2017-12-22T16:17:43.505Z,14.30
2017-12-22T16:20:11.413Z,15.30
2017-12-22T16:22:39.286Z,14.90
2017-12-22T16:25:07.238Z,17.53
2017-12-22T16:27:35.084Z,13.27
2017-12-22T16:30:02.941Z,15.13
2017-12-22T16:32:30.803Z,15.00
2017-12-22T16:34:58.744Z,15.03
2017-12-22T16:37:26.670Z,15.93
2017-12-22T16:39:54.594Z,13.30
2017-12-22T16:42:24.712Z,16.57
2017-12-22T16:44:53.708Z,15.93
2017-12-22T16:47:21.676Z,14.70
2017-12-22T16:49:49.656Z,15.63
2017-12-22T16:52:17.527Z,16.30
2017-12-22T16:54:45.432Z,16.90
2017-12-22T16:57:13.285Z,16.27
2017-12-22T16:59:41.403Z,18.13
2017-12-22T17:02:09.233Z,17.20
2017-12-22T17:04:37.087Z,18.37
2017-12-22T17:07:08.396Z,19.17
2017-12-22T17:09:36.256Z,18.03
2017-12-22T17:12:04.188Z,18.40
2017-12-22T17:14:32.140Z,20.17
2017-12-22T17:17:00.036Z,20.23
2017-12-22T17:19:27.939Z,22.97
2017-12-22T17:21:55.849Z,19.73
2017-12-22T17:24:23.778Z,19.47
2017-12-22T17:26:51.784Z,21.40
2017-12-22T17:29:19.636Z,21.20
2017-12-22T17:31:47.510Z,20.63
2017-12-22T17:34:15.697Z,21.00
2017-12-22T17:36:43.579Z,20.73
2017-12-22T17:39:12.554Z,19.87
2017-12-22T17:41:40.412Z,19.80
2017-12-22T17:44:08.261Z,20.20
2017-12-22T17:46:36.126Z,20.57
2017-12-22T17:49:03.993Z,14.83
2017-12-22T17:51:31.858Z,22.23
2017-12-22T17:53:59.887Z,20.43
2017-12-22T17:56:27.720Z,21.60
2017-12-22T17:58:55.572Z,19.43
2017-12-22T18:01:23.425Z,19.17
2017-12-22T18:03:51.269Z,21.47
2017-12-22T18:06:19.169Z,23.20
2017-12-22T18:08:46.958Z,21.30
2017-12-22T18:11:14.783Z,22.97
2017-12-22T18:13:42.570Z,21.40
2017-12-22T18:16:10.370Z,23.87
2017-12-22T18:18:38.178Z,21.15
2017-12-22T18:21:05.964Z,22.00
2017-12-22T18:23:33.797Z,21.20
2017-12-22T18:26:01.673Z,21.10
2017-12-22T18:28:29.539Z,22.90
2017-12-22T18:30:57.413Z,20.60
2017-12-22T18:33:25.271Z,21.27
2017-12-22T18:35:53.129Z,19.30
2017-12-22T18:38:21.004Z,21.53
2017-12-22T18:40:48.892Z,23.87
2017-12-22T18:43:16.733Z,21.23
2017-12-22T18:45:44.599Z,21.87
2017-12-22T18:48:12.436Z,19.07
2017-12-22T18:50:40.290Z,22.23
2017-12-22T18:53:08.156Z,20.90
2017-12-22T18:55:36.024Z,23.10
2017-12-22T18:58:03.892Z,21.83
2017-12-22T19:00:31.814Z,20.60
2017-12-22T19:02:59.698Z,20.70
2017-12-22T19:05:27.618Z,24.90
2017-12-22T19:07:55.473Z,20.20
2017-12-22T19:10:23.361Z,18.87
2017-12-22T19:12:51.336Z,21.70
2017-12-22T19:15:19.231Z,21.17
2017-12-22T19:17:47.106Z,20.87
2017-12-22T19:20:14.995Z,21.50
2017-12-22T19:22:42.895Z,21.77
2017-12-22T19:25:10.720Z,21.37
2017-12-22T19:27:38.563Z,22.93
2017-12-22T19:30:06.393Z,21.13
2017-12-22T19:32:34.250Z,22.70
2017-12-22T19:35:02.093Z,24.90
2017-12-22T19:37:29.948Z,24.20
2017-12-22T19:39:57.788Z,24.47
2017-12-22T19:42:25.681Z,22.07
2017-12-22T19:44:53.589Z,23.03
2017-12-22T19:47:21.457Z,24.23
2017-12-22T19:49:49.319Z,23.77
2017-12-22T19:52:17.179Z,22.87
2017-12-22T19:54:45.046Z,18.70
2017-12-22T19:57:12.921Z,20.97
2017-12-22T19:59:40.780Z,22.43
2017-12-22T20:02:08.638Z,23.30
2017-12-22T20:04:36.472Z,24.53
2017-12-22T20:07:04.312Z,23.80
2017-12-22T20:09:32.252Z,24.23
2017-12-22T20:12:00.144Z,24.27
2017-12-22T20:14:27.989Z,24.53
2017-12-22T20:16:55.863Z,23.30
2017-12-22T20:19:23.740Z,22.10
2017-12-22T20:21:51.613Z,23.97
2017-12-22T20:24:19.472Z,24.53
2017-12-22T20:26:47.324Z,23.57
2017-12-22T20:29:15.194Z,25.50
2017-12-22T20:31:43.067Z,26.57
2017-12-22T20:34:10.936Z,24.37
2017-12-22T20:36:38.808Z,24.23
2017-12-22T20:39:06.773Z,21.02
2017-12-22T20:41:34.647Z,25.10
2017-12-22T20:44:02.501Z,20.93
2017-12-22T20:46:30.336Z,22.93
2017-12-22T20:48:58.237Z,17.67
2017-12-22T20:51:26.102Z,22.03
2017-12-22T20:53:53.976Z,27.30
2017-12-22T20:56:21.837Z,24.73
2017-12-22T20:58:49.707Z,24.70
2017-12-22T21:01:17.572Z,29.25
2017-12-22T21:03:45.438Z,29.90
2017-12-22T21:06:13.371Z,25.33
2017-12-22T21:08:41.297Z,23.92
2017-12-22T21:11:09.201Z,28.87
2017-12-22T21:13:37.098Z,28.83
2017-12-22T21:16:04.952Z,27.15
2017-12-22T21:18:32.813Z,31.80
2017-12-22T21:21:00.696Z,31.50
2017-12-22T21:23:28.584Z,32.08
2017-12-22T21:25:56.481Z,28.80
2017-12-22T21:28:24.364Z,31.27
2017-12-22T21:30:52.226Z,31.83
2017-12-22T21:33:20.119Z,29.50
2017-12-22T21:35:48.032Z,31.48
2017-12-22T21:38:15.926Z,29.40
2017-12-22T21:40:43.859Z,29.45
2017-12-22T21:43:11.726Z,32.33
2017-12-22T21:45:39.580Z,29.23
2017-12-22T21:48:07.423Z,26.33
2017-12-22T21:50:35.289Z,32.07
2017-12-22T21:53:03.160Z,30.00
2017-12-22T21:55:30.995Z,27.93
2017-12-22T21:57:58.864Z,28.80
2017-12-22T22:00:26.758Z,31.17
2017-12-22T22:02:54.630Z,33.10
2017-12-22T22:05:22.492Z,30.47
2017-12-22T22:07:50.329Z,29.60
2017-12-22T22:10:18.196Z,30.60
2017-12-22T22:12:46.068Z,29.27
2017-12-22T22:15:13.978Z,28.53
2017-12-22T22:17:41.846Z,27.10
2017-12-22T22:20:09.687Z,28.57
2017-12-22T22:22:37.517Z,27.63
2017-12-22T22:25:05.384Z,27.20
2017-12-22T22:27:33.307Z,25.23
2017-12-22T22:30:01.156Z,27.47
2017-12-22T22:32:30.067Z,26.20
2017-12-22T22:34:57.932Z,25.30
2017-12-22T22:37:25.798Z,28.00
2017-12-22T22:39:53.738Z,18.17
2017-12-22T22:42:21.604Z,23.63
2017-12-22T22:44:49.464Z,18.10
2017-12-22T22:47:17.363Z,24.33
2017-12-22T22:49:45.206Z,21.25
2017-12-22T22:52:13.104Z,26.63
2017-12-22T22:54:40.981Z,21.77
2017-12-22T22:57:08.864Z,26.80
2017-12-22T22:59:36.744Z,22.30
2017-12-22T23:02:04.623Z,17.67
2017-12-22T23:04:32.507Z,26.37
2017-12-22T23:07:00.384Z,25.17
2017-12-22T23:09:28.238Z,21.30
2017-12-22T23:11:56.065Z,24.13
2017-12-22T23:14:23.933Z,24.07
2017-12-22T23:16:52.648Z,20.60
2017-12-22T23:19:20.571Z,27.77
2017-12-22T23:21:48.434Z,26.03
2017-12-22T23:24:16.459Z,26.83
2017-12-22T23:26:44.326Z,23.50
2017-12-22T23:29:12.212Z,19.57
2017-12-22T23:31:56.949Z,24.05
2017-12-22T23:34:24.802Z,22.70
2017-12-22T23:36:52.681Z,15.93
2017-12-22T23:39:20.628Z,19.27
2017-12-22T23:41:48.479Z,19.40
2017-12-22T23:44:16.362Z,19.08
2017-12-22T23:46:44.235Z,20.50
2017-12-22T23:49:12.095Z,21.40
2017-12-22T23:51:39.973Z,21.75
2017-12-22T23:54:07.864Z,20.45
2017-12-22T23:56:35.731Z,20.45
2017-12-22T23:59:03.564Z,23.40
